Dover Air Force Base Dover US
ICAO: KDOV
IATA: DOV
Category: Large
Scheduled Services: No

Elevation: 24 ft
TransAlt. 18000 ft.

Airport Communications:
APP:132.425
ATIS:135.05
CLNC DEL:125.55
DEP:32.3
GND:118.875
PMSV METRO:34.2
COMD POST:134.1
PTD:134.1
MILLVILLE RDO:111.4
TWR:126.35

KDOV Zoom In..

Runways:

(A) RW 01 length 9602 ft width 200 ft
ILS 109.95 / hdg 13

(B) RW 14 length 12903 ft width 150 ft
---- / hdg 136

(C) RW 19 length 9602 ft width 200 ft
ILS 111.90 / hdg 193

(D) RW 32 length 12903 ft width 150 ft
---- / hdg 316

Location; KDOV
Day. 23 / Time. 21.56 Zulu
* Altimeter: 29.65
* Temperature: 12° c. 53.6°f.
* Wind from: 300° Speed 06 kn.
Dewpoint: 12° c.
Visibility: 10 Statute Miles.
Clouds: Few 4200 ft.
Clouds: Scattered 5500 ft.

KDOV 232156Z 30006KT 10SM FEW042 SCT055 12/12 A2965 RMK AO2A RAE48 SLP044 P0006 T01220122 $


Wind From 300°
Speed 06 kn.

YouTube Music Video
 
jpsmedia.com for Web Design  worldairports.se 2018   terms of use